Lone Wolf, Oklahoma
Current Conditions -  °F | °C
As of 4:53 AM on Wednesday 22 Oct 2014 (Local Time) from KHBR Reporting Station
Clear Clear  
Wind Chill: 57°   Ceiling: Unl
Heat Index: 57°   Visibility: 10mi
Dew Point: 50°   Wind: 9mph
Humidity: 77%   Direction: 190°S
Pressure: 30.08"   Gusts: NA
Location:  34.99°N, 99.25°W
Report Text: KHBR 220953Z AUTO 19008KT 10SM CLR 14/10 A3008 RMK AO2 SLP173 T01390100
Loading
Personal Weather Stations






























Interactive Weather Map
Tropical Storm Tracking
New forecast layout! Learn more

10-Day Weather Forecast

Advertisements
Track Severe Weather on mobile